Silves — CQMG — position and weather

sailwx.info

Track history (hours):
 
Tides and Currents Weather Stations Pressure Air Temp Water Temp Dewpoint Dewpoint Depression Visibility Wind Speed Wind Dir Waves Ship Positions

Silves

Last reported at 2018-Jul-06 19:20 UTC. Time now 2018-Jul-20 23:54 UTC.
Position N 41°16' W 008°50'.
Warning: this ship's position is 14 days out of date.

Length 90 m; draft 4.3 m.

Type: Cargo ship. MMSI: 255803360.

Date/timePositionNaut miles runAvg speedWind from/ knotsBaromVisibWave heightAir tempDewpointWater temp
2018-Jul-06 19:20N 41°16' W 008°50'3 8.5
2018-Jul-06 19:00N 41°14' W 008°49'4 8.0
2018-Jul-06 18:30N 41°11' W 008°45'3 5.9
2018-Jul-06 18:00N 41°11' W 008°41'0 0.3
2018-Jul-06 17:29N 41°12' W 008°41'0 0.0
2018-Jul-06 16:59N 41°12' W 008°41'0 0.0
2018-Jul-06 16:29N 41°12' W 008°41'0 0.0
2018-Jul-06 15:56N 41°12' W 008°41'0 0.0
2018-Jul-06 15:29N 41°12' W 008°41'0 0.0
2018-Jul-06 14:59N 41°12' W 008°41'0 0.0
2018-Jul-06 14:29N 41°12' W 008°41'0 0.0
2018-Jul-06 13:59N 41°12' W 008°41'0 0.0
2018-Jul-06 13:29N 41°12' W 008°41'0 0.0
2018-Jul-06 12:59N 41°12' W 008°41'0 0.0
2018-Jul-06 12:29N 41°12' W 008°41'0 0.0
2018-Jul-06 11:59N 41°12' W 008°41'0 0.0
2018-Jul-06 11:29N 41°12' W 008°41'0 0.0
2018-Jul-06 10:56N 41°12' W 008°41'0 0.0
2018-Jul-06 10:29N 41°12' W 008°41'0 0.0
2018-Jul-06 09:59N 41°12' W 008°41'0 0.0
2018-Jul-06 09:29N 41°12' W 008°41'0 0.0
2018-Jul-06 08:59N 41°12' W 008°41'0 0.0
2018-Jul-06 08:29N 41°12' W 008°41'0 0.0
2018-Jul-06 07:59N 41°12' W 008°41'0 0.0
2018-Jul-06 07:29N 41°12' W 008°41'0 0.0
2018-Jul-06 06:59N 41°12' W 008°41'0 0.0
2018-Jul-06 06:29N 41°12' W 008°41'0 0.0
2018-Jul-06 05:59N 41°12' W 008°41'0 0.2
2018-Jul-06 05:30N 41°12' W 008°41'2 3.5
2018-Jul-06 05:01N 41°10' W 008°42'3 5.9
2018-Jul-06 04:30N 41°11' W 008°46'  
2018-Jul-03 21:14N 46°01' W 001°42'310.4
2018-Jul-03 20:59N 46°02' W 001°39'510.2
2018-Jul-03 20:31N 46°04' W 001°32'5 9.8
2018-Jul-03 20:01N 46°06' W 001°26'5 9.8
2018-Jul-03 19:31N 46°06' W 001°19'4 8.4
2018-Jul-03 19:01N 46°03' W 001°14'5 9.3
2018-Jul-03 18:31N 45°60' W 001°09'4 8.0
2018-Jul-03 18:01N 45°57' W 001°05'3 6.7
2018-Jul-03 17:31N 45°58' W 001°00'3 5.3
2018-Jul-03 17:00N 45°56' W 000°60'2 4.2
2018-Jul-03 16:31N 45°56' W 000°57'1 0.0
2018-Jul-01 16:08N 45°56' W 000°55'1 9.4
2018-Jul-01 16:00N 45°57' W 000°56'3 5.6
2018-Jul-01 15:29N 45°56' W 001°01'2 4.3
2018-Jul-01 15:00N 45°57' W 001°03'510.0
2018-Jul-01 14:31N 45°60' W 001°09'611.1
2018-Jul-01 14:00N 46°04' W 001°14'1 2.1
2018-Jul-01 13:31N 46°05' W 001°14'0 0.5
2018-Jul-01 12:58N 46°05' W 001°14'0 0.0
2018-Jul-01 12:28N 46°05' W 001°15'0 0.0
2018-Jul-01 11:58N 46°05' W 001°15'0 0.1
2018-Jul-01 11:28N 46°05' W 001°15'0 0.1
2018-Jul-01 10:58N 46°05' W 001°15'0 0.0
2018-Jul-01 10:28N 46°05' W 001°15'0 0.0
2018-Jul-01 09:58N 46°05' W 001°15'0 0.0
2018-Jul-01 09:28N 46°05' W 001°15'0 0.0
2018-Jul-01 08:58N 46°05' W 001°15'0 0.0
2018-Jul-01 08:28N 46°05' W 001°15'2 4.3
2018-Jul-01 08:00N 46°06' W 001°17'5 9.9
2018-Jul-01 07:30N 46°06' W 001°25'5 9.7
2018-Jul-01 07:00N 46°05' W 001°31'510.5
2018-Jul-01 06:30N 46°02' W 001°38'510.3
2018-Jul-01 06:00N 45°60' W 001°45'510.3
2018-Jul-01 05:30N 45°58' W 001°51'510.3
2018-Jul-01 05:00N 45°55' W 001°58'610.3
2018-Jul-01 04:28N 45°53' W 002°05'  
2018-Jun-26 22:34N 49°04' W 005°17'110.0
2018-Jun-26 22:30N 49°05' W 005°16'510.1
2018-Jun-26 22:00N 49°07' W 005°10'510.4
2018-Jun-26 21:30N 49°10' W 005°03'510.2
2018-Jun-26 21:01N 49°12' W 004°56'610.1
2018-Jun-26 20:25N 49°15' W 004°48'4 9.8
2018-Jun-26 20:01N 49°17' W 004°43'  
Track history (hours):
 
Tides and Currents Weather Stations Pressure Air Temp Water Temp Dewpoint Dewpoint Depression Visibility Wind Speed Wind Dir Waves Ship Positions

Silves

Last reported at 2018-Jul-06 19:20 UTC. Time now 2018-Jul-20 23:54 UTC.
Position N 41°16' W 008°50'.
Warning: this ship's position is 14 days out of date.

Length 90 m; draft 4.3 m.

Type: Cargo ship. MMSI: 255803360.

Date/timePositionNaut miles runAvg speedWind from/ knotsBaromVisibWave heightAir tempDewpointWater temp
2018-Jul-06 19:20N 41°16' W 008°50'3 8.5
2018-Jul-06 19:00N 41°14' W 008°49'4 8.0
2018-Jul-06 18:30N 41°11' W 008°45'3 5.9
2018-Jul-06 18:00N 41°11' W 008°41'0 0.3
2018-Jul-06 17:29N 41°12' W 008°41'0 0.0
2018-Jul-06 16:59N 41°12' W 008°41'0 0.0
2018-Jul-06 16:29N 41°12' W 008°41'0 0.0
2018-Jul-06 15:56N 41°12' W 008°41'0 0.0
2018-Jul-06 15:29N 41°12' W 008°41'0 0.0
2018-Jul-06 14:59N 41°12' W 008°41'0 0.0
2018-Jul-06 14:29N 41°12' W 008°41'0 0.0
2018-Jul-06 13:59N 41°12' W 008°41'0 0.0
2018-Jul-06 13:29N 41°12' W 008°41'0 0.0
2018-Jul-06 12:59N 41°12' W 008°41'0 0.0
2018-Jul-06 12:29N 41°12' W 008°41'0 0.0
2018-Jul-06 11:59N 41°12' W 008°41'0 0.0
2018-Jul-06 11:29N 41°12' W 008°41'0 0.0
2018-Jul-06 10:56N 41°12' W 008°41'0 0.0
2018-Jul-06 10:29N 41°12' W 008°41'0 0.0
2018-Jul-06 09:59N 41°12' W 008°41'0 0.0
2018-Jul-06 09:29N 41°12' W 008°41'0 0.0
2018-Jul-06 08:59N 41°12' W 008°41'0 0.0
2018-Jul-06 08:29N 41°12' W 008°41'0 0.0
2018-Jul-06 07:59N 41°12' W 008°41'0 0.0
2018-Jul-06 07:29N 41°12' W 008°41'0 0.0
2018-Jul-06 06:59N 41°12' W 008°41'0 0.0
2018-Jul-06 06:29N 41°12' W 008°41'0 0.0
2018-Jul-06 05:59N 41°12' W 008°41'0 0.2
2018-Jul-06 05:30N 41°12' W 008°41'2 3.5
2018-Jul-06 05:01N 41°10' W 008°42'3 5.9
2018-Jul-06 04:30N 41°11' W 008°46'  
2018-Jul-03 21:14N 46°01' W 001°42'310.4
2018-Jul-03 20:59N 46°02' W 001°39'510.2
2018-Jul-03 20:31N 46°04' W 001°32'5 9.8
2018-Jul-03 20:01N 46°06' W 001°26'5 9.8
2018-Jul-03 19:31N 46°06' W 001°19'4 8.4
2018-Jul-03 19:01N 46°03' W 001°14'5 9.3
2018-Jul-03 18:31N 45°60' W 001°09'4 8.0
2018-Jul-03 18:01N 45°57' W 001°05'3 6.7
2018-Jul-03 17:31N 45°58' W 001°00'3 5.3
2018-Jul-03 17:00N 45°56' W 000°60'2 4.2
2018-Jul-03 16:31N 45°56' W 000°57'1 0.0
2018-Jul-01 16:08N 45°56' W 000°55'1 9.4
2018-Jul-01 16:00N 45°57' W 000°56'3 5.6
2018-Jul-01 15:29N 45°56' W 001°01'2 4.3
2018-Jul-01 15:00N 45°57' W 001°03'510.0
2018-Jul-01 14:31N 45°60' W 001°09'611.1
2018-Jul-01 14:00N 46°04' W 001°14'1 2.1
2018-Jul-01 13:31N 46°05' W 001°14'0 0.5
2018-Jul-01 12:58N 46°05' W 001°14'0 0.0
2018-Jul-01 12:28N 46°05' W 001°15'0 0.0
2018-Jul-01 11:58N 46°05' W 001°15'0 0.1
2018-Jul-01 11:28N 46°05' W 001°15'0 0.1
2018-Jul-01 10:58N 46°05' W 001°15'0 0.0
2018-Jul-01 10:28N 46°05' W 001°15'0 0.0
2018-Jul-01 09:58N 46°05' W 001°15'0 0.0
2018-Jul-01 09:28N 46°05' W 001°15'0 0.0
2018-Jul-01 08:58N 46°05' W 001°15'0 0.0
2018-Jul-01 08:28N 46°05' W 001°15'2 4.3
2018-Jul-01 08:00N 46°06' W 001°17'5 9.9
2018-Jul-01 07:30N 46°06' W 001°25'5 9.7
2018-Jul-01 07:00N 46°05' W 001°31'510.5
2018-Jul-01 06:30N 46°02' W 001°38'510.3
2018-Jul-01 06:00N 45°60' W 001°45'510.3
2018-Jul-01 05:30N 45°58' W 001°51'510.3
2018-Jul-01 05:00N 45°55' W 001°58'610.3
2018-Jul-01 04:28N 45°53' W 002°05'  
2018-Jun-26 22:34N 49°04' W 005°17'110.0
2018-Jun-26 22:30N 49°05' W 005°16'510.1
2018-Jun-26 22:00N 49°07' W 005°10'510.4
2018-Jun-26 21:30N 49°10' W 005°03'510.2
2018-Jun-26 21:01N 49°12' W 004°56'610.1
2018-Jun-26 20:25N 49°15' W 004°48'4 9.8
2018-Jun-26 20:01N 49°17' W 004°43'  

Dump ship's entire track history